Time;durP1;ratioP1;P1;durP2;ratioP2;P2;SDS_P1;SDS_P2;PMS_P1;PMS_P2;Temp;Humidity;BMP_temperature;BMP_pressure;BME280_temperature;BME280_humidity;BME280_pressure;Samples;Min_cycle;Max_cycle;Signal;HPM_P1;HPM_P2
2023/12/23 00:00:03;;;;;;;;;;;;;;;0.88;74.46;93388.17;110320;1266;22443;-76
2023/12/23 00:02:34;;;;;;;;;;;;;;;0.88;74.42;93385.74;110312;1277;22926;-76
2023/12/23 00:05:02;;;;;;;;;;;;;;;0.89;74.83;93402.16;110291;1277;23247;-77
2023/12/23 00:07:30;;;;;;;;;;;;;;;0.88;76.68;93403.23;110307;1277;22424;-76
2023/12/23 00:09:58;;;;;;;;;;;;;;;0.86;77.29;93377.98;110318;1277;22336;-77
2023/12/23 00:12:27;;;;;;;;;;;;;;;0.82;77.41;93370.10;110264;1277;23143;-76
2023/12/23 00:14:56;;;;;;;;;;;;;;;0.80;78.07;93358.20;110319;1277;22314;-76
2023/12/23 00:17:24;;;;;;;;;;;;;;;0.79;78.15;93376.04;110304;1277;23234;-76
2023/12/23 00:19:52;;;;;;;;;;;;;;;0.78;78.39;93371.04;110310;1277;22390;-76
2023/12/23 00:22:20;;;;;;;;;;;;;;;0.75;78.41;93359.65;110323;1277;22398;-76
2023/12/23 00:24:48;;;;;;;;;;;;;;;0.76;78.29;93359.99;110334;1277;22331;-76
2023/12/23 00:27:16;;;;;;;;;;;;;;;0.76;78.28;93359.66;110288;1277;23157;-76
2023/12/23 00:29:44;;;;;;;;;;;;;;;0.79;77.98;93365.84;110289;1277;23017;-76
2023/12/23 00:32:13;;;;;;;;;;;;;;;0.82;77.33;93360.22;110313;1277;23080;-77
2023/12/23 00:34:41;;;;;;;;;;;;;;;0.82;77.30;93358.48;110298;1277;22428;-77
2023/12/23 00:37:09;;;;;;;;;;;;;;;0.84;77.09;93353.80;110310;1277;22419;-76
2023/12/23 00:39:39;;;;;;;;;;;;;;;0.81;77.36;93362.15;110310;1277;23160;-76
2023/12/23 00:42:07;;;;;;;;;;;;;;;0.78;77.19;93369.64;110298;1277;23058;-78
2023/12/23 00:44:36;;;;;;;;;;;;;;;0.80;77.28;93375.85;110303;1277;22338;-76
2023/12/23 00:47:04;;;;;;;;;;;;;;;0.77;77.61;93371.74;110308;1277;22409;-76
2023/12/23 00:49:32;;;;;;;;;;;;;;;0.78;77.48;93359.45;110314;1277;22363;-76
2023/12/23 00:52:00;;;;;;;;;;;;;;;0.76;77.34;93354.46;110296;1277;22391;-77
2023/12/23 00:54:28;;;;;;;;;;;;;;;0.79;77.15;93362.53;110285;1277;23122;-77
2023/12/23 00:56:57;;;;;;;;;;;;;;;0.81;77.17;93369.27;110295;1277;22540;-76
2023/12/23 00:59:25;;;;;;;;;;;;;;;0.79;77.46;93375.17;110312;1277;22355;-76
2023/12/23 01:01:53;;;;;;;;;;;;;;;0.79;77.21;93365.66;110318;1277;23339;-76
2023/12/23 01:04:23;;;;;;;;;;;;;;;0.79;77.32;93360.45;110317;1277;22375;-76
2023/12/23 01:06:51;;;;;;;;;;;;;;;0.80;77.32;93369.44;110311;1277;22524;-76
2023/12/23 01:09:18;;;;;;;;;;;;;;;0.81;77.33;93361.11;110274;1277;23182;-76
2023/12/23 01:11:47;;;;;;;;;;;;;;;0.80;76.82;93360.61;110313;1266;22442;-76
2023/12/23 01:14:15;;;;;;;;;;;;;;;0.80;76.91;93369.61;110307;1277;22350;-77
2023/12/23 01:16:43;;;;;;;;;;;;;;;0.79;76.91;93380.02;110304;1277;22388;-76
2023/12/23 01:19:12;;;;;;;;;;;;;;;0.78;76.60;93377.61;110334;1277;22337;-76
2023/12/23 01:21:41;;;;;;;;;;;;;;;0.75;76.92;93373.17;110306;1277;23087;-75
2023/12/23 01:24:09;;;;;;;;;;;;;;;0.74;77.28;93379.05;110276;1277;23219;-77
2023/12/23 01:26:37;;;;;;;;;;;;;;;0.75;77.51;93366.41;110312;1277;22340;-76
2023/12/23 01:29:05;;;;;;;;;;;;;;;0.73;77.62;93360.90;110298;1277;22476;-76
2023/12/23 01:31:33;;;;;;;;;;;;;;;0.69;77.86;93355.77;110321;1277;22398;-76
2023/12/23 01:34:01;;;;;;;;;;;;;;;0.72;77.57;93359.20;110310;1277;22324;-76
2023/12/23 01:36:30;;;;;;;;;;;;;;;0.71;77.42;93358.88;110287;1277;22413;-76
2023/12/23 01:38:58;;;;;;;;;;;;;;;0.74;77.36;93376.83;110296;1277;23169;-76
2023/12/23 01:41:26;;;;;;;;;;;;;;;0.72;77.79;93388.78;110319;1278;22363;-77
2023/12/23 01:43:54;;;;;;;;;;;;;;;0.73;78.33;93399.15;110312;1277;22401;-76
2023/12/23 01:46:23;;;;;;;;;;;;;;;0.71;78.79;93411.30;110338;1277;23116;-76
2023/12/23 01:48:52;;;;;;;;;;;;;;;0.71;79.17;93406.29;110303;1277;22345;-76
2023/12/23 01:51:20;;;;;;;;;;;;;;;0.70;79.43;93401.27;110320;1277;22482;-76
2023/12/23 01:53:49;;;;;;;;;;;;;;;0.70;79.24;93395.39;110306;1277;22978;-76
2023/12/23 01:56:17;;;;;;;;;;;;;;;0.68;79.20;93389.20;110322;1277;23128;-76
2023/12/23 01:58:45;;;;;;;;;;;;;;;0.67;78.90;93372.27;110336;1277;22454;-77
2023/12/23 02:01:13;;;;;;;;;;;;;;;0.64;78.89;93345.83;110328;1277;22346;-77
2023/12/23 02:03:42;;;;;;;;;;;;;;;0.63;78.89;93346.88;110333;1277;22321;-76
2023/12/23 02:06:10;;;;;;;;;;;;;;;0.63;79.03;93339.27;110287;1277;22656;-77
2023/12/23 02:08:38;;;;;;;;;;;;;;;0.64;79.07;93324.21;110302;1277;23046;-77
2023/12/23 02:11:08;;;;;;;;;;;;;;;0.62;79.05;93310.92;110321;1277;22864;-76
2023/12/23 02:13:45;;;;;;;;;;;;;;;0.63;78.96;93300.70;110314;1277;22360;-76
2023/12/23 02:16:14;;;;;;;;;;;;;;;0.63;79.12;93319.72;110315;1277;22791;-76
2023/12/23 02:18:43;;;;;;;;;;;;;;;0.66;78.91;93340.64;110303;1266;22403;-76
2023/12/23 02:21:11;;;;;;;;;;;;;;;0.66;79.15;93331.80;110336;1277;22397;-76
2023/12/23 02:23:39;;;;;;;;;;;;;;;0.63;79.36;93321.29;110224;1277;22341;-76
2023/12/23 02:26:09;;;;;;;;;;;;;;;0.61;79.71;93326.86;110339;1277;23168;-76
2023/12/23 02:28:38;;;;;;;;;;;;;;;0.56;80.33;93353.05;110331;1277;22997;-76
2023/12/23 02:31:06;;;;;;;;;;;;;;;0.54;80.56;93337.19;110301;1277;22424;-76
2023/12/23 02:33:37;;;;;;;;;;;;;;;0.49;81.26;93336.91;110175;1276;22401;-77
2023/12/23 02:36:05;;;;;;;;;;;;;;;0.44;81.86;93353.44;110335;1277;22388;-76
2023/12/23 02:38:33;;;;;;;;;;;;;;;0.36;82.58;93349.58;110342;1277;23152;-77
2023/12/23 02:41:01;;;;;;;;;;;;;;;0.32;83.31;93369.19;110318;1277;23294;-77
2023/12/23 02:43:29;;;;;;;;;;;;;;;0.28;83.72;93371.48;110194;1277;22439;-76
2023/12/23 02:45:57;;;;;;;;;;;;;;;0.26;83.72;93359.95;110333;1277;22393;-77
2023/12/23 02:48:25;;;;;;;;;;;;;;;0.25;84.05;93361.52;110312;1277;23284;-78
2023/12/23 02:50:53;;;;;;;;;;;;;;;0.25;84.12;93361.84;110339;1277;22742;-76
2023/12/23 02:53:21;;;;;;;;;;;;;;;0.23;84.57;93354.11;110314;1277;22387;-78
2023/12/23 02:55:50;;;;;;;;;;;;;;;0.23;84.29;93350.13;110339;1277;23127;-79
2023/12/23 02:58:18;;;;;;;;;;;;;;;0.25;84.30;93349.41;110359;1277;22340;-78
2023/12/23 03:00:46;;;;;;;;;;;;;;;0.26;84.32;93334.86;110343;1277;22370;-78
2023/12/23 03:03:14;;;;;;;;;;;;;;;0.28;84.16;93341.23;110302;1277;22439;-78
2023/12/23 03:05:42;;;;;;;;;;;;;;;0.28;84.49;93328.78;110350;1277;22394;-78
2023/12/23 03:08:10;;;;;;;;;;;;;;;0.27;84.53;93327.06;110332;1277;23136;-79
2023/12/23 03:10:39;;;;;;;;;;;;;;;0.27;84.70;93324.48;110343;1277;22376;-79
2023/12/23 03:13:08;;;;;;;;;;;;;;;0.27;84.95;93323.44;110327;1277;22350;-78
2023/12/23 03:15:36;;;;;;;;;;;;;;;0.25;85.00;93306.52;110343;1277;22363;-77
2023/12/23 03:18:04;;;;;;;;;;;;;;;0.24;84.84;93296.52;110330;1277;22406;-78
2023/12/23 03:20:33;;;;;;;;;;;;;;;0.26;84.22;93290.61;110341;1277;22430;-77
2023/12/23 03:23:04;;;;;;;;;;;;;;;0.30;83.53;93289.16;110316;1277;22387;-79
2023/12/23 03:25:33;;;;;;;;;;;;;;;0.35;82.30;93298.77;110340;1277;22697;-78
2023/12/23 03:28:01;;;;;;;;;;;;;;;0.40;81.83;93282.05;110347;1277;22359;-78
2023/12/23 03:30:29;;;;;;;;;;;;;;;0.49;80.99;93287.96;110336;1277;22438;-78
2023/12/23 03:32:57;;;;;;;;;;;;;;;0.54;80.31;93307.26;110324;1277;22863;-77
2023/12/23 03:35:26;;;;;;;;;;;;;;;0.55;79.97;93301.36;110320;1277;22417;-77
2023/12/23 03:37:54;;;;;;;;;;;;;;;0.55;79.70;93292.52;110330;1277;23254;-78
2023/12/23 03:40:22;;;;;;;;;;;;;;;0.56;79.50;93281.80;110358;1277;22337;-77
2023/12/23 03:42:50;;;;;;;;;;;;;;;0.54;79.03;93272.48;110329;1277;22369;-78
2023/12/23 03:45:20;;;;;;;;;;;;;;;0.54;78.25;93266.77;110338;1277;22247;-79
2023/12/23 03:47:49;;;;;;;;;;;;;;;0.57;78.42;93260.48;110308;1277;22999;-76
2023/12/23 03:50:17;;;;;;;;;;;;;;;0.60;77.54;93272.89;110327;1277;22442;-79
2023/12/23 03:52:46;;;;;;;;;;;;;;;0.63;76.94;93271.11;110121;1277;22601;-78
2023/12/23 03:55:14;;;;;;;;;;;;;;;0.68;76.19;93269.47;110313;1277;22351;-77
2023/12/23 03:57:43;;;;;;;;;;;;;;;0.73;75.90;93263.15;110338;1277;22861;-77
2023/12/23 04:00:11;;;;;;;;;;;;;;;0.76;75.86;93254.61;110318;1277;22396;-77
2023/12/23 04:02:42;;;;;;;;;;;;;;;0.76;76.20;93261.89;110372;1277;22239;-77
2023/12/23 04:05:10;;;;;;;;;;;;;;;0.74;76.65;93249.63;110346;1277;22360;-78
2023/12/23 04:07:38;;;;;;;;;;;;;;;0.68;77.18;93249.23;110320;1277;22378;-76
2023/12/23 04:10:07;;;;;;;;;;;;;;;0.60;79.52;93259.05;110335;1277;22354;-78
2023/12/23 04:12:35;;;;;;;;;;;;;;;0.55;79.26;93248.06;110334;1277;22402;-76
2023/12/23 04:15:05;;;;;;;;;;;;;;;0.52;79.68;93246.75;110334;1277;22366;-77
2023/12/23 04:17:34;;;;;;;;;;;;;;;0.48;80.12;93268.44;110332;1277;23054;-78
2023/12/23 04:20:02;;;;;;;;;;;;;;;0.45;80.61;93284.92;110375;1277;22378;-76
2023/12/23 04:22:30;;;;;;;;;;;;;;;0.41;80.69;93299.17;110350;1277;22394;-77
2023/12/23 04:24:58;;;;;;;;;;;;;;;0.39;80.72;93312.16;110331;1277;22387;-77
2023/12/23 04:27:27;;;;;;;;;;;;;;;0.43;80.16;93319.90;110342;1270;22822;-77
2023/12/23 04:29:55;;;;;;;;;;;;;;;0.43;80.43;93307.61;110157;1277;22402;-77
2023/12/23 04:32:24;;;;;;;;;;;;;;;0.39;80.74;93313.39;110151;1277;23164;-77
2023/12/23 04:34:55;;;;;;;;;;;;;;;0.35;82.21;93315.35;110314;1277;23079;-77
2023/12/23 04:37:25;;;;;;;;;;;;;;;0.33;81.38;93315.91;110329;1277;22272;-75
2023/12/23 04:39:53;;;;;;;;;;;;;;;0.32;81.24;93320.42;110351;1277;23072;-76
2023/12/23 04:42:21;;;;;;;;;;;;;;;0.33;80.70;93326.98;110330;1277;22337;-76
2023/12/23 04:44:49;;;;;;;;;;;;;;;0.33;81.00;93332.67;109876;1277;593689;-76
2023/12/23 04:47:17;;;;;;;;;;;;;;;0.33;80.80;93323.34;110341;1277;23254;-76
2023/12/23 04:49:45;;;;;;;;;;;;;;;0.35;80.42;93337.84;110360;1277;22356;-77
2023/12/23 04:52:14;;;;;;;;;;;;;;;0.36;80.34;93345.42;110346;1260;22391;-78
2023/12/23 04:54:42;;;;;;;;;;;;;;;0.36;80.80;93351.48;110341;1277;22449;-77
2023/12/23 04:57:10;;;;;;;;;;;;;;;0.33;80.60;93364.48;110372;1277;22349;-76
2023/12/23 04:59:38;;;;;;;;;;;;;;;0.34;80.42;93396.64;110172;1277;22345;-77
2023/12/23 05:02:06;;;;;;;;;;;;;;;0.33;80.52;93393.20;110330;1277;22980;-77
2023/12/23 05:04:35;;;;;;;;;;;;;;;0.30;80.70;93405.52;110295;1277;22335;-76
2023/12/23 05:07:03;;;;;;;;;;;;;;;0.25;81.28;93418.56;110128;1277;22407;-76
2023/12/23 05:09:34;;;;;;;;;;;;;;;0.21;82.14;93427.96;110346;1277;22368;-77
2023/12/23 05:12:02;;;;;;;;;;;;;;;0.15;82.76;93433.40;110313;1277;22450;-78
2023/12/23 05:14:30;;;;;;;;;;;;;;;0.14;82.74;93441.54;110350;1277;22403;-77
2023/12/23 05:16:58;;;;;;;;;;;;;;;0.05;83.20;93442.35;110318;1277;22331;-78
2023/12/23 05:19:26;;;;;;;;;;;;;;;-0.00;83.86;93454.34;110314;1277;22332;-77
2023/12/23 05:21:54;;;;;;;;;;;;;;;-0.04;83.79;93424.84;110327;1277;22475;-77
2023/12/23 05:24:22;;;;;;;;;;;;;;;-0.07;84.08;93426.78;110334;1277;22406;-75
2023/12/23 05:26:50;;;;;;;;;;;;;;;-0.14;84.46;93415.29;110333;1277;22331;-75
2023/12/23 05:29:18;;;;;;;;;;;;;;;-0.15;84.63;93421.17;110117;1277;22408;-76
2023/12/23 05:31:47;;;;;;;;;;;;;;;-0.16;84.55;93436.92;110372;1277;22456;-76
2023/12/23 05:34:16;;;;;;;;;;;;;;;-0.17;84.84;93428.11;110322;1277;22361;-76
2023/12/23 05:36:44;;;;;;;;;;;;;;;-0.18;85.32;93464.41;110320;1277;22404;-76
2023/12/23 05:39:13;;;;;;;;;;;;;;;-0.18;85.58;93466.33;110316;1277;22341;-76
2023/12/23 05:41:41;;;;;;;;;;;;;;;-0.16;85.33;93449.70;110335;1277;22334;-77
2023/12/23 05:44:09;;;;;;;;;;;;;;;-0.20;85.45;93478.08;110370;1277;22366;-76
2023/12/23 05:46:37;;;;;;;;;;;;;;;-0.23;85.76;93490.23;110352;1277;22318;-76
2023/12/23 05:49:05;;;;;;;;;;;;;;;-0.20;84.80;93503.48;110345;1277;22395;-77
2023/12/23 05:51:34;;;;;;;;;;;;;;;-0.18;84.98;93487.92;110347;1277;22434;-76
2023/12/23 05:54:02;;;;;;;;;;;;;;;-0.20;84.56;93484.98;110358;1277;22382;-77
2023/12/23 05:56:30;;;;;;;;;;;;;;;-0.22;84.99;93491.58;110348;1277;23281;-78
2023/12/23 05:58:58;;;;;;;;;;;;;;;-0.23;85.05;93487.80;110382;1277;22372;-77
2023/12/23 06:01:26;;;;;;;;;;;;;;;-0.27;85.12;93476.61;110341;1277;22377;-78
2023/12/23 06:03:54;;;;;;;;;;;;;;;-0.25;84.46;93500.43;110380;1277;22378;-77
2023/12/23 06:06:22;;;;;;;;;;;;;;;-0.23;85.10;93524.42;110343;1277;22363;-77
2023/12/23 06:08:50;;;;;;;;;;;;;;;-0.18;84.78;93518.50;110136;1277;23246;-76
2023/12/23 06:11:18;;;;;;;;;;;;;;;-0.20;84.16;93521.80;110366;1277;23094;-78
2023/12/23 06:13:47;;;;;;;;;;;;;;;-0.21;84.30;93528.89;110359;1277;22389;-77
2023/12/23 06:16:15;;;;;;;;;;;;;;;-0.22;84.31;93529.94;110335;1277;22342;-77
2023/12/23 06:18:43;;;;;;;;;;;;;;;-0.20;84.68;93546.16;110359;1277;22588;-77
2023/12/23 06:21:11;;;;;;;;;;;;;;;-0.23;84.36;93544.13;110360;1277;22319;-78
2023/12/23 06:23:39;;;;;;;;;;;;;;;-0.24;84.30;93537.91;110357;1262;22406;-77
2023/12/23 06:26:09;;;;;;;;;;;;;;;-0.27;84.66;93534.66;110361;1277;22377;-77
2023/12/23 06:28:37;;;;;;;;;;;;;;;-0.27;84.81;93549.67;110346;1277;23136;-76
2023/12/23 06:31:06;;;;;;;;;;;;;;;-0.29;84.64;93546.77;110329;1277;22519;-77
2023/12/23 06:33:34;;;;;;;;;;;;;;;-0.32;84.46;93544.91;110358;1277;22357;-77
2023/12/23 06:36:02;;;;;;;;;;;;;;;-0.35;84.17;93539.75;110337;1277;22343;-78
2023/12/23 06:38:30;;;;;;;;;;;;;;;-0.37;83.86;93535.27;110363;1277;22395;-76
2023/12/23 06:40:58;;;;;;;;;;;;;;;-0.40;83.39;93537.05;110357;1276;22364;-77
2023/12/23 06:43:26;;;;;;;;;;;;;;;-0.43;83.52;93561.59;110367;1277;22408;-77
2023/12/23 06:46:14;;;;;;;;;;;;;;;-0.43;83.57;93570.92;110339;1277;23117;-77
2023/12/23 06:48:42;;;;;;;;;;;;;;;-0.45;83.88;93573.69;110359;1277;22368;-77
2023/12/23 06:51:11;;;;;;;;;;;;;;;-0.50;84.19;93573.74;110198;1277;22357;-78
2023/12/23 06:53:39;;;;;;;;;;;;;;;-0.50;84.26;93579.97;110365;1277;22408;-76
2023/12/23 06:56:07;;;;;;;;;;;;;;;-0.47;84.36;93577.00;110343;1277;23037;-76
2023/12/23 06:58:37;;;;;;;;;;;;;;;-0.47;84.52;93566.46;110360;1277;23228;-76
2023/12/23 07:01:05;;;;;;;;;;;;;;;-0.44;84.57;93581.64;110367;1277;22393;-76
2023/12/23 07:03:33;;;;;;;;;;;;;;;-0.38;84.39;93574.85;110342;1277;23029;-76
2023/12/23 07:06:03;;;;;;;;;;;;;;;-0.33;84.07;93583.78;110313;1277;22400;-76
2023/12/23 07:08:31;;;;;;;;;;;;;;;-0.32;83.62;93592.06;110319;1277;22386;-76
2023/12/23 07:10:59;;;;;;;;;;;;;;;-0.27;83.63;93603.23;110377;1277;22434;-76
2023/12/23 07:13:27;;;;;;;;;;;;;;;-0.28;83.62;93615.86;110373;1277;22406;-77
2023/12/23 07:15:55;;;;;;;;;;;;;;;-0.23;83.52;93616.34;110375;1277;22332;-77
2023/12/23 07:18:23;;;;;;;;;;;;;;;-0.22;83.41;93624.96;110364;1277;22326;-79
2023/12/23 07:20:54;;;;;;;;;;;;;;;-0.27;83.01;93627.27;110157;1277;22404;-78
2023/12/23 07:23:22;;;;;;;;;;;;;;;-0.36;83.55;93632.52;110396;1277;22411;-77
2023/12/23 07:25:50;;;;;;;;;;;;;;;-0.42;83.70;93644.14;110376;1277;22323;-77
2023/12/23 07:28:18;;;;;;;;;;;;;;;-0.46;83.75;93652.80;110401;1277;23168;-77
2023/12/23 07:30:47;;;;;;;;;;;;;;;-0.46;83.71;93656.44;110358;1277;22438;-78
2023/12/23 07:33:15;;;;;;;;;;;;;;;-0.48;83.95;93663.89;110361;1277;22330;-77
2023/12/23 07:35:43;;;;;;;;;;;;;;;-0.42;83.91;93662.98;110328;1277;22871;-78
2023/12/23 07:38:11;;;;;;;;;;;;;;;-0.42;83.92;93669.36;110307;1277;22490;-77
2023/12/23 07:40:40;;;;;;;;;;;;;;;-0.41;84.29;93672.98;110359;1277;22392;-77
2023/12/23 07:43:08;;;;;;;;;;;;;;;-0.39;83.94;93673.15;110379;1277;22378;-78
2023/12/23 07:45:37;;;;;;;;;;;;;;;-0.39;83.80;93682.65;110375;1277;22349;-78
2023/12/23 07:48:05;;;;;;;;;;;;;;;-0.37;83.82;93683.48;110386;1277;22480;-77
2023/12/23 07:50:33;;;;;;;;;;;;;;;-0.33;83.78;93688.48;110346;1277;22362;-77
2023/12/23 07:53:01;;;;;;;;;;;;;;;-0.32;83.54;93697.63;110310;1277;23174;-77
2023/12/23 07:55:29;;;;;;;;;;;;;;;-0.34;83.53;93708.34;110338;1277;23363;-78
2023/12/23 07:57:59;;;;;;;;;;;;;;;-0.34;83.80;93692.29;110373;1277;22320;-77
2023/12/23 08:00:27;;;;;;;;;;;;;;;-0.34;83.95;93700.23;110373;1261;23089;-77
2023/12/23 08:02:55;;;;;;;;;;;;;;;-0.31;83.82;93706.94;110357;1277;22472;-78
2023/12/23 08:05:24;;;;;;;;;;;;;;;-0.30;83.84;93710.91;110364;1277;22429;-77
2023/12/23 08:07:52;;;;;;;;;;;;;;;-0.26;83.68;93715.38;110209;1277;23135;-77
2023/12/23 08:10:20;;;;;;;;;;;;;;;-0.22;83.32;93719.66;110383;1277;22378;-78
2023/12/23 08:12:48;;;;;;;;;;;;;;;-0.23;83.11;93725.02;110368;1277;22446;-77
2023/12/23 08:15:16;;;;;;;;;;;;;;;-0.20;83.38;93723.10;110371;1277;22336;-77
2023/12/23 08:17:44;;;;;;;;;;;;;;;-0.17;83.25;93729.83;110351;1277;22386;-77
2023/12/23 08:20:13;;;;;;;;;;;;;;;-0.19;83.04;93737.27;110379;1277;23176;-77
2023/12/23 08:22:44;;;;;;;;;;;;;;;-0.21;83.18;93748.50;110318;1277;22388;-76
2023/12/23 08:25:12;;;;;;;;;;;;;;;-0.26;83.20;93753.21;110371;1277;22318;-77
2023/12/23 08:27:40;;;;;;;;;;;;;;;-0.26;83.25;93759.08;110348;1277;22568;-77
2023/12/23 08:30:08;;;;;;;;;;;;;;;-0.27;83.24;93761.68;110365;1277;22469;-76
2023/12/23 08:32:37;;;;;;;;;;;;;;;-0.26;83.20;93763.23;110292;1277;22419;-78
2023/12/23 08:35:05;;;;;;;;;;;;;;;-0.28;83.27;93776.89;110391;1277;22337;-77
2023/12/23 08:37:33;;;;;;;;;;;;;;;-0.33;86.85;93777.79;110347;1277;22465;-76
2023/12/23 08:40:01;;;;;;;;;;;;;;;-0.39;84.10;93787.32;110370;1277;22391;-77
2023/12/23 08:42:29;;;;;;;;;;;;;;;-0.37;84.22;93796.11;110385;1277;23092;-77
2023/12/23 08:44:57;;;;;;;;;;;;;;;-0.37;84.38;93795.08;110375;1277;22504;-77
2023/12/23 08:47:25;;;;;;;;;;;;;;;-0.31;84.39;93784.52;110381;1277;22333;-77
2023/12/23 08:49:54;;;;;;;;;;;;;;;-0.28;84.39;93795.38;110376;1277;22349;-76
2023/12/23 08:52:22;;;;;;;;;;;;;;;-0.28;84.11;93795.38;110270;1277;23097;-78
2023/12/23 08:54:50;;;;;;;;;;;;;;;-0.29;83.44;93806.96;110368;1277;22408;-77
2023/12/23 08:57:18;;;;;;;;;;;;;;;-0.23;83.33;93810.36;110377;1277;22323;-77
2023/12/23 08:59:46;;;;;;;;;;;;;;;-0.19;82.95;93806.73;110381;1277;23254;-76
2023/12/23 09:02:14;;;;;;;;;;;;;;;-0.13;82.97;93809.80;110383;1277;22331;-76
2023/12/23 09:04:42;;;;;;;;;;;;;;;-0.04;82.91;93816.30;110380;1277;22376;-76
2023/12/23 09:07:10;;;;;;;;;;;;;;;0.06;82.66;93821.77;110361;1277;22390;-77
2023/12/23 09:09:41;;;;;;;;;;;;;;;0.18;82.54;93823.92;110368;1277;22344;-77
2023/12/23 09:12:09;;;;;;;;;;;;;;;0.26;81.50;93825.42;110365;1277;22215;-76
2023/12/23 09:14:38;;;;;;;;;;;;;;;0.36;81.45;93831.56;110380;1277;22356;-77
2023/12/23 09:17:06;;;;;;;;;;;;;;;0.46;80.85;93831.65;110378;1277;22341;-76
2023/12/23 09:19:34;;;;;;;;;;;;;;;0.50;80.26;93826.77;110295;1277;22408;-76
2023/12/23 09:22:03;;;;;;;;;;;;;;;0.47;79.70;93825.24;110380;1277;22352;-77
2023/12/23 09:24:31;;;;;;;;;;;;;;;0.43;79.35;93805.05;110374;1277;22376;-77
2023/12/23 09:26:59;;;;;;;;;;;;;;;0.47;79.41;93806.41;110364;1277;22377;-76
2023/12/23 09:29:27;;;;;;;;;;;;;;;0.53;79.42;93819.84;110356;1277;22342;-77
2023/12/23 09:31:56;;;;;;;;;;;;;;;0.53;79.04;93840.08;110356;1277;23179;-77
2023/12/23 09:34:24;;;;;;;;;;;;;;;0.58;78.67;93840.20;110310;1277;22416;-77
2023/12/23 09:36:52;;;;;;;;;;;;;;;0.64;78.49;93856.57;110225;1277;23202;-77
2023/12/23 09:39:20;;;;;;;;;;;;;;;0.65;77.51;93866.45;110330;1277;22379;-79
2023/12/23 09:41:48;;;;;;;;;;;;;;;0.58;77.89;93874.80;110285;1277;22451;-76
2023/12/23 09:44:16;;;;;;;;;;;;;;;0.48;78.42;93879.90;110352;1277;23063;-76
2023/12/23 09:46:44;;;;;;;;;;;;;;;0.39;78.66;93882.05;110349;1277;22358;-77
2023/12/23 09:49:12;;;;;;;;;;;;;;;0.28;78.23;93887.48;110353;1277;22551;-77
2023/12/23 09:51:41;;;;;;;;;;;;;;;0.20;78.70;93893.94;110368;1277;22401;-77
2023/12/23 09:54:14;;;;;;;;;;;;;;;0.11;78.94;93888.98;110301;1274;22403;-78
2023/12/23 09:56:42;;;;;;;;;;;;;;;0.08;79.38;93890.73;110401;1277;22248;-78
2023/12/23 09:59:10;;;;;;;;;;;;;;;0.04;79.42;93882.64;110303;1277;22360;-77
2023/12/23 10:01:38;;;;;;;;;;;;;;;-0.00;79.54;93890.95;110387;1277;22386;-77
2023/12/23 10:04:06;;;;;;;;;;;;;;;-0.01;79.74;93906.16;110377;1277;22343;-77
2023/12/23 10:06:35;;;;;;;;;;;;;;;0.05;79.59;93913.92;110308;1277;22365;-77
2023/12/23 10:09:03;;;;;;;;;;;;;;;0.06;78.44;93906.30;110340;1277;22373;-77
2023/12/23 10:11:31;;;;;;;;;;;;;;;0.09;77.96;93909.73;110379;1277;22426;-78
2023/12/23 10:13:59;;;;;;;;;;;;;;;0.17;77.66;93909.00;110372;1277;22418;-77
2023/12/23 10:16:27;;;;;;;;;;;;;;;0.28;77.40;93904.95;110369;1277;22378;-78
2023/12/23 10:18:55;;;;;;;;;;;;;;;0.30;76.44;93913.06;110378;1277;22357;-76
2023/12/23 10:21:24;;;;;;;;;;;;;;;0.28;76.04;93912.39;110339;1277;22388;-77
2023/12/23 10:23:53;;;;;;;;;;;;;;;0.32;76.13;93913.73;110370;1277;22429;-77
2023/12/23 10:26:21;;;;;;;;;;;;;;;0.39;75.68;93911.81;110272;1277;22322;-77
2023/12/23 10:28:52;;;;;;;;;;;;;;;0.50;74.94;93919.86;110367;1277;22336;-77
2023/12/23 10:31:21;;;;;;;;;;;;;;;0.65;74.60;93926.48;110377;1277;22436;-76
2023/12/23 10:33:52;;;;;;;;;;;;;;;0.77;74.00;93929.68;110362;1277;22381;-76
2023/12/23 10:36:24;;;;;;;;;;;;;;;0.74;73.89;93943.38;110380;1277;22187;-78
2023/12/23 10:38:59;;;;;;;;;;;;;;;0.61;74.01;93986.56;110351;1277;22264;-79
2023/12/23 10:41:42;;;;;;;;;;;;;;;0.13;74.41;94015.17;110363;1277;22173;-77
2023/12/23 10:44:11;;;;;;;;;;;;;;;-0.47;81.37;93987.04;110355;1277;22353;-76
2023/12/23 10:46:40;;;;;;;;;;;;;;;-0.90;77.82;93991.24;110367;1277;22335;-76
2023/12/23 10:49:09;;;;;;;;;;;;;;;-1.03;77.74;93988.33;110359;1277;22376;-76
2023/12/23 10:51:38;;;;;;;;;;;;;;;-1.09;76.18;93990.05;110362;1277;23067;-77
2023/12/23 10:54:08;;;;;;;;;;;;;;;-1.12;74.53;94005.92;110373;1277;22420;-76
2023/12/23 10:56:38;;;;;;;;;;;;;;;-1.06;74.81;94017.66;110341;1277;22222;-76
2023/12/23 10:59:07;;;;;;;;;;;;;;;-0.98;74.01;94009.55;110374;1277;22859;-76
2023/12/23 11:01:36;;;;;;;;;;;;;;;-0.78;73.47;94011.61;110375;1277;22333;-76
2023/12/23 11:04:05;;;;;;;;;;;;;;;-0.62;71.17;94005.70;110384;1277;22344;-77
2023/12/23 11:06:35;;;;;;;;;;;;;;;-0.45;69.71;94000.85;110342;1277;22369;-76
2023/12/23 11:09:04;;;;;;;;;;;;;;;-0.34;69.40;94000.13;110171;1277;23795;-76
2023/12/23 11:11:32;;;;;;;;;;;;;;;-0.24;69.58;93996.65;110361;1277;22390;-76
2023/12/23 11:14:00;;;;;;;;;;;;;;;-0.19;68.70;93993.01;110366;1277;22430;-76
2023/12/23 11:16:29;;;;;;;;;;;;;;;-0.23;67.57;93991.80;110348;1277;22331;-76
2023/12/23 11:18:57;;;;;;;;;;;;;;;-0.29;66.89;93990.96;110360;1277;22595;-76
2023/12/23 11:21:25;;;;;;;;;;;;;;;-0.35;67.45;93994.08;110353;1277;22393;-76
2023/12/23 11:23:53;;;;;;;;;;;;;;;-0.46;67.56;94002.75;110362;1277;22422;-76
2023/12/23 11:26:40;;;;;;;;;;;;;;;-0.55;68.68;94012.97;110327;1277;23305;-77
2023/12/23 11:29:11;;;;;;;;;;;;;;;-0.63;69.23;94006.07;110367;1277;22162;-76
2023/12/23 11:31:40;;;;;;;;;;;;;;;-0.74;70.96;93993.66;110357;1277;22451;-76
2023/12/23 11:34:12;;;;;;;;;;;;;;;-0.82;72.07;94000.56;110253;1277;22484;-76
2023/12/23 11:36:44;;;;;;;;;;;;;;;-0.73;73.23;94001.23;110347;1274;22272;-76
2023/12/23 11:39:13;;;;;;;;;;;;;;;-0.62;73.72;93996.73;110272;1271;22282;-76
2023/12/23 11:41:42;;;;;;;;;;;;;;;-0.53;73.76;93993.61;110287;1277;22398;-76
2023/12/23 11:44:11;;;;;;;;;;;;;;;-0.43;73.93;93984.25;110352;1277;22336;-76
2023/12/23 11:46:42;;;;;;;;;;;;;;;-0.29;73.71;93976.45;110296;1277;22386;-76
2023/12/23 11:49:11;;;;;;;;;;;;;;;-0.18;73.62;93983.15;110341;1277;22372;-76
2023/12/23 11:51:39;;;;;;;;;;;;;;;-0.10;73.26;93977.95;110312;1265;22432;-76
2023/12/23 11:54:08;;;;;;;;;;;;;;;-0.04;72.80;93970.47;110337;1277;23128;-76
2023/12/23 11:56:36;;;;;;;;;;;;;;;0.05;73.20;93966.63;110219;1278;22407;-76
2023/12/23 11:59:05;;;;;;;;;;;;;;;0.11;73.25;93968.50;110338;1277;23202;-76
2023/12/23 12:01:33;;;;;;;;;;;;;;;0.19;73.52;93954.11;110285;1277;22390;-76
2023/12/23 12:04:01;;;;;;;;;;;;;;;0.22;73.37;93956.01;110341;1277;22344;-76
2023/12/23 12:06:30;;;;;;;;;;;;;;;0.17;72.77;93953.27;110348;1277;22400;-76
2023/12/23 12:08:59;;;;;;;;;;;;;;;0.14;72.97;93953.98;110335;1277;22428;-76
2023/12/23 12:11:28;;;;;;;;;;;;;;;0.12;72.11;93956.41;110292;1277;23171;-76
2023/12/23 12:14:00;;;;;;;;;;;;;;;0.08;72.04;93955.21;110362;1277;22565;-77
2023/12/23 12:16:28;;;;;;;;;;;;;;;-0.05;71.61;93960.98;110329;1277;22597;-77
2023/12/23 12:18:56;;;;;;;;;;;;;;;-0.06;71.93;93963.22;110337;1277;22346;-77
2023/12/23 12:21:24;;;;;;;;;;;;;;;-0.08;72.08;93957.19;110340;1277;22348;-76
2023/12/23 12:23:57;;;;;;;;;;;;;;;-0.11;72.17;93958.40;110325;1277;22377;-76
2023/12/23 12:26:26;;;;;;;;;;;;;;;-0.14;72.30;93956.52;110337;1277;22261;-78
2023/12/23 12:28:54;;;;;;;;;;;;;;;-0.21;72.71;93963.11;110338;1277;23109;-77
2023/12/23 12:31:22;;;;;;;;;;;;;;;-0.24;72.86;93963.99;110281;1277;23081;-77
2023/12/23 12:33:51;;;;;;;;;;;;;;;-0.25;73.08;93964.16;110345;1277;22362;-76
2023/12/23 12:36:20;;;;;;;;;;;;;;;-0.28;73.15;93969.19;110338;1277;22442;-76
2023/12/23 12:38:48;;;;;;;;;;;;;;;-0.27;73.13;93969.36;110329;1277;23143;-76
2023/12/23 12:41:17;;;;;;;;;;;;;;;-0.21;73.13;93969.16;110286;1277;22436;-77
2023/12/23 12:43:45;;;;;;;;;;;;;;;-0.17;72.93;93974.50;110317;1277;22409;-76
2023/12/23 12:46:16;;;;;;;;;;;;;;;-0.15;72.73;93978.82;110343;1266;22336;-76
2023/12/23 12:48:45;;;;;;;;;;;;;;;-0.16;72.57;93972.77;110227;1277;22192;-76